Conway, Washington
Current Conditions -  °F | °C
As of 4:35 PM on Wednesday 26 Nov 2014 (Local Time) from KBVS Reporting Station
Overcast Overcast  
Wind Chill: 14°   Ceiling: 2100
Heat Index: 14°   Visibility: 10mi
Dew Point: 12°   Wind: 10mph
Humidity: 88%   Direction: 160°SSE
Pressure: 29.96"   Gusts: NA
Location:  48.34°N, 122.35°W
Report Text: KBVS 270035Z AUTO 16009KT 10SM OVC021 14/12 A2996 RMK A01 P000
Loading
Personal Weather Stations






























Interactive Weather Map New forecast layout! Learn more

10-Day Weather Forecast

Advertisements
Track Severe Weather on mobile